Historique des mesures à Cassis (13260), France
Quotidien Résumé Décembre 07, 2018 Unités:  Métrique/US    US   Métrique
« Précédent (Jour)
Suivant (Jour) »
Quotidien Hebdomadaire Mensuel Annuel Période au choix
  Maximum: Minimum: Moyenne:
Température: 32 °F /  TemperatureC °C 52.7 °F /  11.5 °C 54.7 °F /  12.6 °C
Point de rosée: 32 °F /  DewpointC °C 44.8 °F /  7.1 °C 47.3 °F /  8.5 °C
Humidité: Humidity % 66 % 73 %
Vitesse du vent: WindSpeedKMH mph /  0 km/h - 4.2 mph /  6.8 km/h
Rafales: WindSpeedGustKMH mph /  0 km/h - -
Vent:- - WNW
Pression: 0 in /  PressurehPa hPa 30 in /  1014.5 hPa -
Précipitations: 0 in /  0.0 mm    
Historical Graphs
 
 
Mesures pour : Décembre 07, 2018
Heure Temperature Point de rosée Pression Vent Vitesse du vent Rafales Humidité Pluie (par heure) Conditions
32 °F /  TemperatureC °C 32 °F /  DewpointC °C 0 in /  PressurehPa hPa Calm     Humidity % 0 in /  HourlyPrecipMM mm SoftwareType W/m2
00:10 54.3 °F /  12.4 °C 46.2 °F /  7.9 °C 30.1 in /  1019.3 hPa Calm   1.4 mph /  2.3 km/h 74 % 0 in /  0.0 mm open2300-1.11 W/m2
01:10 53.8 °F /  12.1 °C 46.4 °F /  8.0 °C 30.1 in /  1018.9 hPa WNW 8.6 mph /  13.8 km/h 14.4 mph /  23.2 km/h 76 % 0 in /  0.0 mm open2300-1.11 W/m2
02:10 53.4 °F /  11.9 °C 46.4 °F /  8.0 °C 30.1 in /  1019.0 hPa WNW 4.0 mph /  6.4 km/h 4.0 mph /  6.4 km/h 77 % 0 in /  0.0 mm open2300-1.11 W/m2
03:10 52.9 °F /  11.6 °C 46.2 °F /  7.9 °C 30.1 in /  1019.0 hPa Calm   1.1 mph /  1.8 km/h 78 % 0 in /  0.0 mm open2300-1.11 W/m2
04:10 52.7 °F /  11.5 °C 46.4 °F /  8.0 °C 30.1 in /  1018.6 hPa Calm   2.2 mph /  3.5 km/h 79 % 0 in /  0.0 mm open2300-1.11 W/m2
05:10 52.9 °F /  11.6 °C 46.9 °F /  8.3 °C 30.1 in /  1018.7 hPa Calm   2.5 mph /  4 km/h 80 % 0 in /  0.0 mm open2300-1.11 W/m2
06:10 53.1 °F /  11.7 °C 47.5 °F /  8.6 °C 30.1 in /  1018.5 hPa NW 7.2 mph /  11.6 km/h 7.2 mph /  11.6 km/h 81 % 0 in /  0.0 mm open2300-1.11 W/m2
07:10 53.2 °F /  11.8 °C 47.8 °F /  8.8 °C 30.1 in /  1018.6 hPa Calm   4.0 mph /  6.4 km/h 82 % 0 in /  0.0 mm open2300-1.11 W/m2
08:10 53.2 °F /  11.8 °C 48.2 °F /  9.0 °C 30.1 in /  1018.4 hPa WNW 2.2 mph /  3.5 km/h 2.2 mph /  3.5 km/h 83 % 0 in /  0.0 mm open2300-1.11 W/m2
09:10 53.4 °F /  11.9 °C 48 °F /  8.9 °C 30.1 in /  1018.6 hPa NW 2.2 mph /  3.5 km/h 2.5 mph /  4 km/h 82 % 0 in /  0.0 mm open2300-1.11 W/m2
10:10 56.1 °F /  13.4 °C 50.4 °F /  10.2 °C 30.1 in /  1018.5 hPa Calm     81 % 0 in /  0.0 mm open2300-1.11 W/m2
11:10 58.3 °F /  14.6 °C 52.2 °F /  11.2 °C 30.1 in /  1018.7 hPa Calm   7.2 mph /  11.6 km/h 80 % 0 in /  0.0 mm open2300-1.11 W/m2
12:10 59.2 °F /  15.1 °C 52.7 °F /  11.5 °C 30.1 in /  1018.3 hPa South 2.2 mph /  3.5 km/h 3.2 mph /  5.1 km/h 79 % 0 in /  0.0 mm open2300-1.11 W/m2
13:10 58.5 °F /  14.7 °C 50.5 °F /  10.3 °C 30.1 in /  1017.7 hPa West 23.0 mph /  37 km/h 23.0 mph /  37 km/h 75 % 0 in /  0.0 mm open2300-1.11 W/m2
14:10 58.6 °F /  14.8 °C 50.7 °F /  10.4 °C 30 in /  1017.2 hPa WNW 8.3 mph /  13.4 km/h 14.4 mph /  23.2 km/h 75 % 0 in /  0.0 mm open2300-1.11 W/m2
15:10 58.6 °F /  14.8 °C 49.6 °F /  9.8 °C 30 in /  1016.2 hPa West 7.6 mph /  12.2 km/h 12.6 mph /  20.3 km/h 72 % 0 in /  0.0 mm open2300-1.11 W/m2
16:10 57.9 °F /  14.4 °C 48.9 °F /  9.4 °C 30 in /  1015.7 hPa WNW 14.8 mph /  23.8 km/h 14.8 mph /  23.8 km/h 72 % 0 in /  0.0 mm open2300-1.11 W/m2
17:10 56.5 °F /  13.6 °C 48.2 °F /  9.0 °C 30 in /  1016.2 hPa NW 1.4 mph /  2.3 km/h 2.9 mph /  4.7 km/h 74 % 0 in /  0.0 mm open2300-1.11 W/m2
18:10 56.1 °F /  13.4 °C 48.2 °F /  9.0 °C 30 in /  1016.3 hPa Calm   1.4 mph /  2.3 km/h 75 % 0 in /  0.0 mm open2300-1.11 W/m2
19:10 56.1 °F /  13.4 °C 47.5 °F /  8.6 °C 30 in /  1016.0 hPa East 4.0 mph /  6.4 km/h 4.0 mph /  6.4 km/h 73 % 0 in /  0.0 mm open2300-1.11 W/m2
20:10 56.3 °F /  13.5 °C 45.9 °F /  7.7 °C 30 in /  1015.8 hPa WNW 4.0 mph /  6.4 km/h 4.0 mph /  6.4 km/h 68 % 0 in /  0.0 mm open2300-1.11 W/m2
21:10 55.9 °F /  13.3 °C 44.8 °F /  7.1 °C 30 in /  1015.9 hPa NNW 3.2 mph /  5.1 km/h 13.3 mph /  21.4 km/h 66 % 0 in /  0.0 mm open2300-1.11 W/m2
22:10 56.1 °F /  13.4 °C 45.3 °F /  7.4 °C 30 in /  1015.5 hPa NNW 4.0 mph /  6.4 km/h 4.0 mph /  6.4 km/h 67 % 0 in /  0.0 mm open2300-1.11 W/m2
23:10 56.5 °F /  13.6 °C 46.8 °F /  8.2 °C 30 in /  1014.5 hPa NW 8.6 mph /  13.8 km/h 29.5 mph /  47.5 km/h 70 % 0 in /  0.0 mm open2300-1.11 W/m2
Observations météo à CASSIS
WU-History script by Weather Underground - 1 mb